createdAt,value
2018-05-13T00:00:05.452Z,59.8
2018-05-13T00:15:04.482Z,60.2
2018-05-13T00:30:05.166Z,60.7
2018-05-13T00:45:05.063Z,61.2
2018-05-13T01:00:05.363Z,61
2018-05-13T01:15:04.532Z,61
2018-05-13T01:30:05.031Z,60
2018-05-13T01:45:05.056Z,60.5
2018-05-13T02:00:04.628Z,60
2018-05-13T02:15:05.227Z,59.6
2018-05-13T02:30:05.052Z,61
2018-05-13T02:45:04.610Z,61.3
2018-05-13T03:00:04.679Z,61.4
2018-05-13T03:15:05.365Z,62.6
2018-05-13T03:30:05.179Z,62.7
2018-05-13T03:45:05.281Z,63.8
2018-05-13T04:00:05.037Z,65.3
2018-05-13T04:15:05.281Z,65.3
2018-05-13T04:30:05.384Z,65
2018-05-13T04:45:04.557Z,66.3
2018-05-13T05:00:05.540Z,66.1
2018-05-13T05:15:04.883Z,67.2
2018-05-13T05:30:05.149Z,67.1
2018-05-13T05:45:05.510Z,66.8
2018-05-13T06:00:04.479Z,66
2018-05-13T06:15:05.135Z,67
2018-05-13T06:30:04.646Z,65.9
2018-05-13T06:45:05.128Z,66.6
2018-05-13T07:00:05.318Z,66.7
2018-05-13T07:15:05.012Z,67
2018-05-13T07:30:05.239Z,67
2018-05-13T07:45:04.699Z,67.9
2018-05-13T08:00:05.230Z,67.9
2018-05-13T08:15:04.636Z,67
2018-05-13T08:30:04.453Z,67.5
2018-05-13T08:45:05.157Z,65.3
2018-05-13T09:00:05.104Z,65.7
2018-05-13T09:15:05.043Z,65.8
2018-05-13T09:30:04.865Z,64.5
2018-05-13T09:45:04.605Z,64.5
2018-05-13T10:00:04.689Z,63.8
2018-05-13T10:15:04.793Z,62.4
2018-05-13T10:30:05.206Z,62
2018-05-13T10:45:05.284Z,63
2018-05-13T11:00:05.636Z,61.5
2018-05-13T11:15:04.882Z,62.1
2018-05-13T11:30:04.687Z,61.9
2018-05-13T11:45:05.380Z,62.4
2018-05-13T12:00:04.524Z,61.4
2018-05-13T12:15:05.218Z,61.9
2018-05-13T12:30:04.802Z,62.2
2018-05-13T12:45:05.239Z,62.5
2018-05-13T13:00:04.959Z,63.5
2018-05-13T13:15:04.589Z,62.6
2018-05-13T13:30:04.775Z,63.8
2018-05-13T13:45:04.570Z,62.9
2018-05-13T14:00:04.708Z,63.9
2018-05-13T14:15:05.538Z,64.4
2018-05-13T14:30:04.857Z,63.8
2018-05-13T14:45:04.396Z,64
2018-05-13T15:00:04.528Z,63.9
2018-05-13T15:15:04.507Z,63.8
2018-05-13T15:30:05.228Z,63.8
2018-05-13T15:45:04.803Z,64.3
2018-05-13T16:00:05.525Z,64.6
2018-05-13T16:15:04.667Z,64.6
2018-05-13T16:30:04.934Z,65.3
2018-05-13T16:45:04.871Z,65.3
2018-05-13T17:00:04.998Z,66
2018-05-13T17:15:04.747Z,66.4
2018-05-13T17:30:05.159Z,66.8
2018-05-13T17:45:04.947Z,66.8
2018-05-13T18:00:04.726Z,66.3
2018-05-13T18:15:05.453Z,67.1
2018-05-13T18:30:05.091Z,67.4
2018-05-13T18:45:04.753Z,67
2018-05-13T19:00:05.214Z,66.6
2018-05-13T19:15:05.227Z,66.9
2018-05-13T19:30:04.409Z,67.6
2018-05-13T19:45:04.473Z,68.1
2018-05-13T20:00:04.537Z,68.8
2018-05-13T20:15:05.264Z,70
2018-05-13T20:30:04.463Z,71.1
2018-05-13T20:45:04.452Z,70.8
2018-05-13T21:00:04.455Z,71.3
2018-05-13T21:15:04.465Z,71.7
2018-05-13T21:30:05.196Z,72.6
2018-05-13T21:45:04.906Z,73.8
2018-05-13T22:00:04.714Z,73
2018-05-13T22:15:04.735Z,73.1
2018-05-13T22:30:05.042Z,72.9
2018-05-13T22:45:04.890Z,71.9
2018-05-13T23:00:05.194Z,71.8
2018-05-13T23:15:05.181Z,72.3
2018-05-13T23:30:04.360Z,71.8
2018-05-13T23:45:04.790Z,72
